Barton-le-Clay, United Kingdom
Current Conditions -  °F | °C
As of 2:50 AM on Wednesday 26 Nov 2014 (Local Time) from EGGW Reporting Station
Moderate Rain Moderate Rain  
Wind Chill: 40°   Ceiling: 300
Heat Index: 43°   Visibility: 1.1mi
Dew Point: 43°   Wind: 5mph
Humidity: 100%   Direction: 30°NNE
Pressure: 29.91"   Gusts: NA
Location:  51.97°N, 0.43°W
Report Text: EGGW 260250Z 03004KT 1800 RA OVC003TCU 06/06 Q1013
Loading
Personal Weather Stations






























Interactive Weather Map New forecast layout! Learn more

10-Day Weather Forecast

Advertisements
Track Severe Weather on mobile